Time;durP1;ratioP1;P1;durP2;ratioP2;P2;SDS_P1;SDS_P2;PMS_P1;PMS_P2;Temp;Humidity;BMP_temperature;BMP_pressure;BME280_temperature;BME280_humidity;BME280_pressure;Samples;Min_cycle;Max_cycle;Signal;HPM_P1;HPM_P2
2022/09/26 00:02:18;;;;;;;3.40;3.10;;;;;;;13.85;75.85;99121.63;4930650;28;20308;-79
2022/09/26 00:04:44;;;;;;;5.00;4.10;;;;;;;13.86;75.75;99120.66;4929211;28;20222;-79
2022/09/26 00:07:09;;;;;;;5.07;4.60;;;;;;;13.88;75.84;99118.72;4928399;28;20202;-80
2022/09/26 00:09:35;;;;;;;8.33;4.60;;;;;;;13.89;75.49;99116.91;4928411;28;20204;-79
2022/09/26 00:12:00;;;;;;;4.90;3.90;;;;;;;13.89;75.70;99114.28;4934424;28;20244;-79
2022/09/26 00:14:28;;;;;;;5.87;3.93;;;;;;;13.86;75.60;99110.09;4924612;28;20558;-79
2022/09/26 00:16:53;;;;;;;5.57;4.15;;;;;;;13.85;75.76;99113.72;4926028;29;20682;-79
2022/09/26 00:19:20;;;;;;;5.33;3.93;;;;;;;13.85;75.71;99111.06;4924959;28;20202;-80
2022/09/26 00:21:46;;;;;;;4.22;3.13;;;;;;;13.85;75.73;99107.56;4926644;28;20416;-79
2022/09/26 00:24:11;;;;;;;4.43;3.70;;;;;;;13.85;75.67;99104.94;4928755;28;20201;-79
2022/09/26 00:26:37;;;;;;;5.37;4.17;;;;;;;13.85;75.72;99112.84;4924594;28;20769;-79
2022/09/26 00:29:08;;;;;;;5.17;3.30;;;;;;;13.82;75.83;99111.31;4932014;28;20205;-79
2022/09/26 00:31:44;;;;;;;4.90;3.58;;;;;;;13.77;75.88;99110.03;4930177;28;20284;-81
2022/09/26 00:34:12;;;;;;;4.75;4.05;;;;;;;13.70;76.04;99107.06;4928606;28;20647;-79
2022/09/26 00:36:38;;;;;;;6.10;4.78;;;;;;;13.70;76.14;99104.44;4927849;28;20190;-81
2022/09/26 00:39:05;;;;;;;4.00;3.57;;;;;;;13.71;76.15;99104.28;4922646;28;20316;-80
2022/09/26 00:41:30;;;;;;;8.65;3.83;;;;;;;13.74;75.94;99097.91;4932617;28;20252;-81
2022/09/26 00:43:56;;;;;;;3.43;2.93;;;;;;;13.75;75.89;99096.97;4925901;28;20305;-79
2022/09/26 00:46:43;;;;;;;4.20;3.30;;;;;;;13.76;75.83;99089.88;4923862;28;20181;-79
2022/09/26 00:49:26;;;;;;;6.25;2.90;;;;;;;13.76;75.92;99092.53;4924637;28;20565;-81
2022/09/26 00:51:59;;;;;;;5.40;3.60;;;;;;;13.74;75.90;99087.38;4930907;28;20186;-79
2022/09/26 00:54:28;;;;;;;6.20;4.55;;;;;;;13.65;75.90;99088.97;4929102;28;20202;-79
2022/09/26 00:56:58;;;;;;;5.57;4.10;;;;;;;13.58;76.09;99079.06;4925545;28;20204;-82
2022/09/26 00:59:33;;;;;;;4.00;3.60;;;;;;;13.53;76.24;99079.47;4935860;28;20206;-79
2022/09/26 01:01:58;;;;;;;7.13;4.18;;;;;;;13.50;76.56;99079.72;4930563;28;20220;-81
2022/09/26 01:04:31;;;;;;;8.30;3.60;;;;;;;13.47;76.54;99085.25;4939819;28;20182;-79
2022/09/26 01:07:00;;;;;;;6.72;3.90;;;;;;;13.47;76.72;99075.56;4924421;28;20277;-79
2022/09/26 01:09:27;;;;;;;9.70;4.25;;;;;;;13.54;76.82;99085.59;4927388;28;20197;-81
2022/09/26 01:11:54;;;;;;;9.05;4.70;;;;;;;13.57;76.69;99075.59;4923097;29;20388;-80
2022/09/26 01:14:21;;;;;;;6.28;4.38;;;;;;;13.62;76.65;99077.88;4939750;28;20194;-79
2022/09/26 01:16:49;;;;;;;9.07;4.20;;;;;;;13.66;76.55;99073.97;4924698;28;20197;-79
2022/09/26 01:19:43;;;;;;;7.05;4.80;;;;;;;13.69;76.46;99068.44;4925931;28;20769;-79
2022/09/26 01:22:20;;;;;;;5.22;3.92;;;;;;;13.68;76.61;99058.84;4927219;28;20291;-80
2022/09/26 01:25:08;;;;;;;6.00;3.60;;;;;;;13.66;76.59;99059.00;4924889;29;20196;-79
2022/09/26 01:27:56;;;;;;;10.02;4.80;;;;;;;13.67;76.72;99059.84;4920143;29;20181;-81
2022/09/26 01:30:26;;;;;;;6.57;5.88;;;;;;;13.69;76.71;99068.44;4922168;28;20746;-79
2022/09/26 01:32:58;;;;;;;6.72;4.28;;;;;;;13.72;76.72;99069.03;4923668;28;20185;-80
2022/09/26 01:35:36;;;;;;;8.60;4.88;;;;;;;13.75;76.50;99065.28;4944709;28;20643;-79
2022/09/26 01:38:20;;;;;;;5.88;4.78;;;;;;;13.78;76.52;99059.75;4925039;28;20487;-79
2022/09/26 01:41:03;;;;;;;8.50;5.60;;;;;;;13.78;76.45;99049.19;4927075;28;20827;-81
2022/09/26 01:43:40;;;;;;;4.40;3.55;;;;;;;13.76;76.52;99053.75;4925567;28;20214;-80
2022/09/26 01:46:22;;;;;;;6.78;5.10;;;;;;;13.73;76.67;99049.56;4925599;29;20185;-81
2022/09/26 01:48:57;;;;;;;6.93;3.60;;;;;;;13.68;76.86;99041.22;4926882;28;20712;-81
2022/09/26 01:51:37;;;;;;;6.00;4.25;;;;;;;13.66;76.81;99047.59;4942391;28;20231;-79
2022/09/26 01:54:11;;;;;;;8.10;5.35;;;;;;;13.65;76.90;99040.66;4925615;28;20185;-79
2022/09/26 01:56:39;;;;;;;4.93;4.43;;;;;;;13.66;77.00;99042.31;4943871;28;20227;-81
2022/09/26 01:59:21;;;;;;;6.40;4.60;;;;;;;13.66;76.91;99035.25;4918253;28;20774;-80
2022/09/26 02:01:54;;;;;;;6.22;4.80;;;;;;;13.66;76.96;99032.63;4935291;28;20770;-79
2022/09/26 02:04:26;;;;;;;6.20;4.35;;;;;;;13.67;76.92;99039.56;4939296;28;20652;-79
2022/09/26 02:06:59;;;;;;;7.72;4.68;;;;;;;13.66;76.95;99027.34;4928763;28;20214;-81
2022/09/26 02:09:31;;;;;;;5.90;4.80;;;;;;;13.66;77.10;99026.47;4921324;28;20620;-82
2022/09/26 02:12:02;;;;;;;6.80;5.93;;;;;;;13.66;77.09;99021.19;4940081;28;20607;-79
2022/09/26 02:14:33;;;;;;;6.68;5.95;;;;;;;13.66;77.10;99022.06;4919613;28;20191;-79
2022/09/26 02:17:06;;;;;;;8.45;4.72;;;;;;;13.69;77.21;99015.66;4923161;28;20190;-80
2022/09/26 02:19:40;;;;;;;4.63;3.78;;;;;;;13.67;77.20;99009.69;4927100;28;20630;-80
2022/09/26 02:22:06;;;;;;;8.10;5.13;;;;;;;13.58;77.38;99019.22;4925866;28;20213;-79
2022/09/26 02:24:31;;;;;;;7.13;4.60;;;;;;;13.53;77.59;99007.38;4919812;28;20193;-80
2022/09/26 02:26:57;;;;;;;7.50;5.90;;;;;;;13.49;77.69;99005.00;4919461;28;20608;-79
2022/09/26 02:29:22;;;;;;;6.40;5.80;;;;;;;13.46;77.83;99010.56;4935622;28;20692;-79
2022/09/26 02:31:56;;;;;;;7.55;5.50;;;;;;;13.46;77.93;99010.56;4922181;28;20180;-81
2022/09/26 02:34:24;;;;;;;9.38;6.20;;;;;;;13.50;78.18;99006.69;4935452;28;20433;-79
2022/09/26 02:36:50;;;;;;;8.25;5.60;;;;;;;13.46;78.39;99005.28;4934155;28;20355;-80
2022/09/26 02:39:16;;;;;;;7.80;5.32;;;;;;;13.45;78.45;98997.50;4953595;23;20236;-73
2022/09/26 02:42:20;;;;;;;10.77;5.35;;;;;;;13.42;78.51;98992.47;4947267;28;20213;-73
2022/09/26 02:44:58;;;;;;;7.20;6.10;;;;;;;13.44;78.47;98991.38;4943629;28;20671;-73
2022/09/26 02:47:34;;;;;;;8.32;5.45;;;;;;;13.46;78.54;98981.53;4959478;28;20319;-73
2022/09/26 02:50:09;;;;;;;8.05;4.88;;;;;;;13.50;78.32;98988.22;4956664;28;20802;-72
2022/09/26 02:52:41;;;;;;;8.43;6.05;;;;;;;13.52;78.27;98979.34;4954691;28;20239;-73
2022/09/26 02:55:23;;;;;;;6.78;5.13;;;;;;;13.49;78.31;98988.34;4941603;28;20359;-73
2022/09/26 02:58:21;;;;;;;7.85;5.43;;;;;;;13.46;78.42;98989.44;4954809;28;20193;-73
2022/09/26 03:00:56;;;;;;;10.90;4.72;;;;;;;13.45;78.45;98990.41;4938184;28;20718;-73
2022/09/26 03:03:46;;;;;;;7.53;5.28;;;;;;;13.34;77.81;98981.72;4938266;28;20398;-73
2022/09/26 03:06:16;;;;;;;8.50;5.37;;;;;;;13.23;78.15;98972.06;4598348;28;10011685;-73
2022/09/26 03:08:46;;;;;;;5.85;4.80;;;;;;;13.17;78.29;98978.69;4939398;28;20304;-72
2022/09/26 03:11:18;;;;;;;8.38;5.53;;;;;;;13.06;78.12;98969.06;4938419;28;20189;-73
2022/09/26 03:13:44;;;;;;;7.32;4.93;;;;;;;13.00;78.27;98966.94;4952657;28;20178;-72
2022/09/26 03:16:11;;;;;;;7.43;5.00;;;;;;;12.96;78.45;98964.69;4953181;28;20240;-73
2022/09/26 03:18:48;;;;;;;10.98;5.13;;;;;;;12.95;78.74;98952.47;4939912;28;20220;-74
2022/09/26 03:21:14;;;;;;;6.57;5.10;;;;;;;12.95;78.58;98949.84;4952812;28;20224;-73
2022/09/26 03:23:40;;;;;;;7.20;4.57;;;;;;;12.95;78.54;98936.66;4936975;28;20178;-73
2022/09/26 03:26:13;;;;;;;7.90;4.90;;;;;;;12.97;78.67;98943.47;4940592;28;20284;-73
2022/09/26 03:28:49;;;;;;;10.60;5.47;;;;;;;13.00;78.39;98942.38;4952797;28;20693;-73
2022/09/26 03:31:14;;;;;;;6.80;4.23;;;;;;;12.99;78.25;98946.81;4947111;28;20192;-73
2022/09/26 03:33:51;;;;;;;6.15;4.95;;;;;;;13.00;78.43;98943.22;4934418;28;20521;-73
2022/09/26 03:36:17;;;;;;;5.60;4.75;;;;;;;13.02;78.35;98948.38;4940300;28;20193;-73
2022/09/26 03:38:42;;;;;;;7.87;5.03;;;;;;;13.02;78.41;98938.66;4956185;28;20327;-74
2022/09/26 03:41:21;;;;;;;7.32;5.30;;;;;;;13.04;78.39;98944.63;4940675;28;20235;-74
2022/09/26 03:44:07;;;;;;;5.85;4.18;;;;;;;13.02;78.11;98940.47;4938307;28;20193;-73
2022/09/26 03:46:55;;;;;;;6.20;3.97;;;;;;;12.99;77.93;98943.34;4939866;28;20229;-73
2022/09/26 03:49:21;;;;;;;2.80;2.30;;;;;;;12.94;77.62;98945.53;4940337;28;20296;-73
2022/09/26 03:51:46;;;;;;;6.03;2.87;;;;;;;12.90;77.14;98939.66;4954540;28;20189;-73
2022/09/26 03:54:12;;;;;;;4.60;3.40;;;;;;;12.86;77.02;98943.53;4939911;28;20292;-74
2022/09/26 03:56:37;;;;;;;4.87;3.40;;;;;;;12.83;76.64;98939.38;4936883;28;20177;-73
2022/09/26 03:59:03;;;;;;;4.13;2.63;;;;;;;12.79;76.40;98937.09;4942088;28;20196;-73
2022/09/26 04:01:29;;;;;;;5.43;2.90;;;;;;;12.77;76.62;98946.94;4938942;28;20228;-73
2022/09/26 04:03:55;;;;;;;5.00;3.30;;;;;;;12.80;77.17;98944.06;4951285;28;21104;-73
2022/09/26 04:06:20;;;;;;;5.07;2.78;;;;;;;12.86;77.08;98945.34;4942119;28;20239;-73
2022/09/26 04:08:49;;;;;;;3.00;2.72;;;;;;;12.88;76.78;98932.84;4938716;28;20224;-72
2022/09/26 04:11:20;;;;;;;4.82;3.05;;;;;;;12.83;76.69;98936.72;4947566;28;20235;-72
2022/09/26 04:13:48;;;;;;;2.70;2.00;;;;;;;12.79;76.89;98931.84;4944676;28;20255;-72
2022/09/26 04:16:14;;;;;;;5.78;4.07;;;;;;;12.76;77.14;98932.09;4954790;28;20201;-73
2022/09/26 04:18:43;;;;;;;3.85;2.95;;;;;;;12.78;77.13;98935.44;4934444;28;20220;-72
2022/09/26 04:21:12;;;;;;;4.10;2.67;;;;;;;12.80;76.72;98930.88;4941628;28;20717;-72
2022/09/26 04:23:40;;;;;;;2.03;1.90;;;;;;;12.77;76.50;98928.47;4942215;28;20502;-73
2022/09/26 04:26:11;;;;;;;3.22;2.50;;;;;;;12.65;76.71;98919.81;4958974;28;20276;-73
2022/09/26 04:28:38;;;;;;;2.78;2.50;;;;;;;12.55;77.18;98913.63;4955857;28;20221;-73
2022/09/26 04:31:05;;;;;;;3.33;2.40;;;;;;;12.48;77.41;98915.13;4953308;28;20289;-72
2022/09/26 04:33:33;;;;;;;7.65;3.05;;;;;;;12.47;77.66;98932.69;4939254;28;20185;-73
2022/09/26 04:36:11;;;;;;;4.65;2.88;;;;;;;12.49;77.81;98924.69;4944887;28;20255;-72
2022/09/26 04:38:38;;;;;;;3.25;2.95;;;;;;;12.53;77.76;98921.69;4957339;28;20868;-73
2022/09/26 04:41:12;;;;;;;5.88;3.72;;;;;;;12.54;77.76;98920.69;4956874;28;20216;-73
2022/09/26 04:43:39;;;;;;;5.07;2.90;;;;;;;12.56;77.72;98918.78;4944206;28;20273;-73
2022/09/26 04:46:08;;;;;;;2.92;2.60;;;;;;;12.57;77.68;98915.16;4958294;28;21013;-74
2022/09/26 04:48:35;;;;;;;3.60;2.25;;;;;;;12.57;77.50;98923.06;4943104;28;20241;-73
2022/09/26 04:51:11;;;;;;;3.55;2.20;;;;;;;12.52;77.61;98917.34;4945707;28;20203;-73
2022/09/26 04:53:38;;;;;;;3.53;3.22;;;;;;;12.51;77.69;98918.31;4959118;28;20627;-73
2022/09/26 04:56:14;;;;;;;4.28;2.50;;;;;;;12.50;77.89;98919.28;4945631;28;20202;-73
2022/09/26 04:58:42;;;;;;;3.17;2.70;;;;;;;12.50;77.86;98910.53;4945841;28;20319;-73
2022/09/26 05:01:10;;;;;;;2.55;2.20;;;;;;;12.49;77.91;98914.97;4942880;28;20482;-73
2022/09/26 05:03:50;;;;;;;3.08;2.78;;;;;;;12.53;77.91;98915.53;4957012;28;20203;-73
2022/09/26 05:06:16;;;;;;;5.07;3.10;;;;;;;12.50;77.89;98906.13;4943480;28;20200;-73
2022/09/26 05:08:45;;;;;;;6.32;3.10;;;;;;;12.47;78.08;98911.63;4933664;28;20788;-73
2022/09/26 05:11:13;;;;;;;3.17;2.67;;;;;;;12.48;78.07;98918.56;4950427;28;20202;-73
2022/09/26 05:13:38;;;;;;;2.63;2.42;;;;;;;12.53;78.04;98915.53;4932204;28;20317;-73
2022/09/26 05:16:07;;;;;;;4.47;2.67;;;;;;;12.54;78.01;98912.78;4946554;28;20649;-72
2022/09/26 05:18:33;;;;;;;4.47;3.17;;;;;;;12.60;77.91;98914.91;4937505;28;20843;-72
2022/09/26 05:21:01;;;;;;;5.15;2.65;;;;;;;12.66;77.81;98913.56;4953123;28;20326;-73
2022/09/26 05:26:21;;;;;;;9.02;5.25;;;;;;;12.66;77.72;98904.84;4935953;28;20748;-75
2022/09/26 05:28:50;;;;;;;6.50;3.67;;;;;;;12.64;77.80;98897.06;4952026;28;20350;-73
2022/09/26 05:31:19;;;;;;;3.95;3.38;;;;;;;12.61;77.88;98898.16;4953316;28;20205;-72
2022/09/26 05:33:45;;;;;;;5.03;3.22;;;;;;;12.58;78.01;98892.28;4953573;28;20813;-72
2022/09/26 05:36:12;;;;;;;7.78;3.53;;;;;;;12.57;78.24;98896.72;4938356;28;20496;-72
2022/09/26 05:38:38;;;;;;;4.00;2.97;;;;;;;12.57;78.20;98893.28;4940488;28;20254;-72
2022/09/26 05:41:04;;;;;;;5.88;3.17;;;;;;;12.57;78.24;98894.09;4949061;28;20216;-72
2022/09/26 05:43:34;;;;;;;3.63;3.20;;;;;;;12.58;78.23;98905.47;4950219;28;20221;-72
2022/09/26 05:46:05;;;;;;;5.30;3.13;;;;;;;12.61;78.26;98892.91;4943261;28;20232;-72
2022/09/26 05:48:37;;;;;;;6.97;3.42;;;;;;;12.65;78.31;98895.28;4953610;28;20935;-73
2022/09/26 05:51:11;;;;;;;4.03;3.58;;;;;;;12.69;78.02;98894.03;4936604;28;20193;-72
2022/09/26 05:53:40;;;;;;;5.05;3.10;;;;;;;12.71;77.92;98895.56;4954545;28;20439;-73
2022/09/26 05:56:07;;;;;;;4.00;3.60;;;;;;;12.73;77.91;98891.03;4951096;28;20198;-72
2022/09/26 05:58:48;;;;;;;4.20;2.92;;;;;;;12.74;77.67;98889.22;4938699;28;20315;-72
2022/09/26 06:01:17;;;;;;;4.55;3.10;;;;;;;12.74;77.88;98886.56;4938757;28;20466;-73
2022/09/26 06:03:45;;;;;;;6.53;3.25;;;;;;;12.75;77.78;98883.00;4951455;28;20197;-73
2022/09/26 06:06:19;;;;;;;7.60;2.88;;;;;;;12.73;77.70;98883.13;4951706;28;20864;-73
2022/09/26 06:08:46;;;;;;;3.00;2.70;;;;;;;12.73;77.65;98885.75;4954485;28;20237;-72
2022/09/26 06:11:49;;;;;;;2.63;2.42;;;;;;;12.74;77.59;98881.31;4940020;28;20698;-73
2022/09/26 06:14:15;;;;;;;3.17;2.90;;;;;;;12.73;77.52;98877.00;4938820;28;20195;-73
2022/09/26 06:16:41;;;;;;;3.28;2.80;;;;;;;12.75;77.37;98875.91;4955538;28;20206;-73
2022/09/26 06:19:07;;;;;;;3.87;3.00;;;;;;;12.79;77.11;98874.69;4939978;28;20243;-73
2022/09/26 06:21:34;;;;;;;5.78;3.05;;;;;;;12.84;76.90;98861.97;4954110;28;20722;-73
2022/09/26 06:24:07;;;;;;;2.63;2.42;;;;;;;12.91;76.41;98861.41;4937095;28;20236;-73
2022/09/26 06:26:34;;;;;;;4.85;2.97;;;;;;;12.97;76.25;98866.19;4954190;28;20230;-74
2022/09/26 06:29:01;;;;;;;3.63;2.78;;;;;;;12.98;75.77;98852.88;4936756;28;20213;-74
2022/09/26 06:31:32;;;;;;;4.80;2.70;;;;;;;13.02;75.58;98859.56;4937690;28;20266;-74
2022/09/26 06:34:17;;;;;;;6.45;3.80;;;;;;;13.10;75.57;98851.00;4937288;28;20515;-74
2022/09/26 06:36:52;;;;;;;3.33;2.90;;;;;;;13.19;75.34;98844.91;4934357;28;20196;-74
2022/09/26 06:39:17;;;;;;;4.97;3.37;;;;;;;13.30;75.01;98840.56;4939022;28;20256;-72
2022/09/26 06:41:44;;;;;;;4.10;3.13;;;;;;;13.37;74.85;98837.25;4937476;28;20728;-74
2022/09/26 06:44:48;;;;;;;4.25;3.67;;;;;;;13.49;74.71;98837.97;4929437;28;20303;-74
2022/09/26 06:47:23;;;;;;;4.70;3.78;;;;;;;13.59;74.47;98841.47;4906448;28;20239;-73
2022/09/26 06:49:54;;;;;;;4.15;3.67;;;;;;;13.69;74.06;98839.69;4913611;29;20316;-73
2022/09/26 06:52:32;;;;;;;4.88;3.38;;;;;;;13.75;73.56;98825.09;4951412;28;20198;-73
2022/09/26 06:54:58;;;;;;;9.38;3.47;;;;;;;13.77;73.07;98824.94;4921251;28;20275;-74
2022/09/26 06:57:24;;;;;;;3.17;2.60;;;;;;;13.81;73.19;98824.56;4917631;29;20695;-74
2022/09/26 06:59:49;;;;;;;3.20;2.90;;;;;;;13.94;73.05;98830.41;4922940;29;20546;-73
2022/09/26 07:02:34;;;;;;;3.60;3.30;;;;;;;14.11;72.41;98825.41;4914764;28;20337;-73
2022/09/26 07:05:13;;;;;;;2.83;2.63;;;;;;;14.21;72.10;98820.13;4920088;28;20384;-74
2022/09/26 07:07:47;;;;;;;3.58;3.28;;;;;;;14.28;71.87;98827.31;4932478;28;20203;-73
2022/09/26 07:10:22;;;;;;;8.15;3.40;;;;;;;14.32;71.66;98818.16;4917397;28;20285;-74
2022/09/26 07:13:03;;;;;;;5.13;3.55;;;;;;;14.40;71.75;98820.09;4921209;29;20188;-74
2022/09/26 07:15:31;;;;;;;6.50;3.85;;;;;;;14.51;71.56;98827.03;4921796;28;20534;-75
2022/09/26 07:18:01;;;;;;;5.20;3.17;;;;;;;14.60;71.38;98820.91;4948944;28;20559;-73
2022/09/26 07:20:39;;;;;;;4.63;3.58;;;;;;;14.72;71.42;98819.78;4920628;28;20616;-73
2022/09/26 07:23:15;;;;;;;6.65;4.32;;;;;;;14.81;71.32;98818.91;4917997;28;20222;-74
2022/09/26 07:25:44;;;;;;;9.52;6.65;;;;;;;14.87;71.43;98814.88;4952426;28;20225;-73
2022/09/26 07:28:10;;;;;;;5.72;4.60;;;;;;;14.94;71.43;98818.59;4950237;28;20309;-74
2022/09/26 07:30:56;;;;;;;7.65;5.35;;;;;;;15.10;71.11;98817.16;4921323;28;20293;-74
2022/09/26 07:33:45;;;;;;;8.90;5.20;;;;;;;15.32;70.70;98819.41;4947738;28;20616;-73
2022/09/26 07:36:10;;;;;;;6.93;5.50;;;;;;;15.46;70.26;98810.16;4920190;29;20232;-74
2022/09/26 07:38:36;;;;;;;7.43;5.37;;;;;;;15.51;70.07;98810.53;4933954;28;20621;-74
2022/09/26 07:41:02;;;;;;;6.13;5.03;;;;;;;15.61;69.92;98811.31;4917591;28;20218;-75
2022/09/26 07:43:28;;;;;;;5.53;4.50;;;;;;;15.73;69.37;98803.19;4951256;28;20470;-75
2022/09/26 07:51:45;;;;;;;5.07;4.65;;;;;;;16.13;67.07;98808.84;4921619;28;20254;-74
2022/09/26 07:54:16;;;;;;;6.97;5.35;;;;;;;16.46;65.67;98808.28;4919034;28;20189;-73
2022/09/26 07:57:18;;;;;;;6.53;4.97;;;;;;;16.74;64.68;98807.16;4925406;28;20185;-75
2022/09/26 07:59:53;;;;;;;6.90;4.95;;;;;;;17.06;63.68;98810.16;4954539;28;20208;-74
2022/09/26 08:02:41;;;;;;;10.73;5.50;;;;;;;17.66;61.68;98802.94;4919902;29;20237;-73
2022/09/26 08:05:10;;;;;;;6.18;5.40;;;;;;;18.27;58.93;98806.16;4936511;28;20188;-74
2022/09/26 08:07:36;;;;;;;10.80;6.30;;;;;;;18.81;57.52;98800.31;4935793;28;20659;-74
2022/09/26 08:10:19;;;;;;;9.02;4.95;;;;;;;19.18;55.93;98796.22;4936444;28;20209;-75
2022/09/26 08:13:04;;;;;;;7.65;4.45;;;;;;;19.09;55.83;98786.56;4932826;28;20270;-74
2022/09/26 08:15:47;;;;;;;6.38;4.68;;;;;;;19.08;55.02;98785.75;4921958;28;20626;-73
2022/09/26 08:18:21;;;;;;;9.73;5.18;;;;;;;19.39;54.37;98784.97;4921946;28;20776;-75
2022/09/26 08:20:47;;;;;;;5.43;4.30;;;;;;;19.86;52.92;98768.88;4922343;28;20184;-74
2022/09/26 08:23:15;;;;;;;7.33;5.90;;;;;;;20.31;51.60;98766.38;4921016;28;20224;-74
2022/09/26 08:25:41;;;;;;;8.77;4.85;;;;;;;20.70;50.46;98757.31;4938303;28;20222;-73
2022/09/26 08:28:19;;;;;;;5.97;5.30;;;;;;;20.90;49.15;98770.94;4921863;29;20529;-75
2022/09/26 08:30:45;;;;;;;10.43;5.87;;;;;;;21.00;49.10;98771.50;4931588;28;20429;-73
2022/09/26 08:33:11;;;;;;;6.73;5.40;;;;;;;21.08;48.72;98778.59;4920503;29;20200;-73
2022/09/26 08:35:38;;;;;;;8.00;5.37;;;;;;;21.10;48.75;98772.03;4917085;29;20190;-74
2022/09/26 08:41:38;;;;;;;7.43;5.50;;;;;;;21.34;47.63;98756.72;4904332;28;20263;-78
2022/09/26 08:44:45;;;;;;;6.68;5.90;;;;;;;21.38;47.26;98745.50;4929467;28;20466;-78
2022/09/26 08:47:48;;;;;;;5.70;4.80;;;;;;;21.29;47.19;98751.13;4922205;29;20268;-79
2022/09/26 08:50:38;;;;;;;7.30;4.80;;;;;;;20.96;47.96;98762.22;4919042;29;20225;-78
2022/09/26 08:53:10;;;;;;;10.43;5.15;;;;;;;20.57;48.64;98755.28;4932851;28;20186;-78
2022/09/26 08:55:45;;;;;;;6.50;4.60;;;;;;;19.91;49.97;98765.69;4936920;28;21085;-78
2022/09/26 08:58:21;;;;;;;13.05;6.20;;;;;;;19.30;51.57;98762.84;4934710;28;20471;-78
2022/09/26 09:00:57;;;;;;;8.25;5.15;;;;;;;18.70;52.48;98750.91;4932777;28;20699;-78
2022/09/26 09:03:35;;;;;;;6.32;4.97;;;;;;;18.35;54.02;98752.16;4930221;28;20404;-78
2022/09/26 09:06:13;;;;;;;7.07;4.88;;;;;;;18.01;55.06;98752.34;4917080;29;20188;-78
2022/09/26 09:08:44;;;;;;;9.70;4.18;;;;;;;17.72;55.74;98761.59;4930696;28;20756;-77
2022/09/26 09:12:02;;;;;;;4.53;4.13;;;;;;;17.42;56.71;98753.25;4932764;29;20817;-78
2022/09/26 09:14:46;;;;;;;5.45;3.67;;;;;;;17.28;57.15;98753.84;4934618;28;20190;-80
2022/09/26 09:17:52;;;;;;;6.18;4.45;;;;;;;17.20;57.72;98751.16;4935833;28;20258;-80
2022/09/26 09:20:52;;;;;;;7.95;4.25;;;;;;;17.20;57.56;98757.34;4920014;29;20336;-80
2022/09/26 09:24:09;;;;;;;5.22;4.50;;;;;;;17.25;57.16;98759.47;4930553;28;20194;-80
2022/09/26 09:27:01;;;;;;;3.63;3.33;;;;;;;17.28;57.20;98758.34;4931588;28;20684;-80
2022/09/26 09:29:44;;;;;;;5.25;3.65;;;;;;;17.29;57.34;98763.50;4932919;28;20206;-79
2022/09/26 09:32:46;;;;;;;4.55;3.70;;;;;;;17.43;57.63;98752.25;4919177;29;20222;-80
2022/09/26 09:35:32;;;;;;;4.22;3.08;;;;;;;17.61;56.80;98746.00;4930907;28;20681;-79
2022/09/26 09:38:33;;;;;;;5.78;4.32;;;;;;;17.76;56.66;98746.97;4925299;28;20202;-79
2022/09/26 09:41:09;;;;;;;5.75;4.20;;;;;;;17.83;56.13;98747.19;4929652;29;20238;-79
2022/09/26 09:43:50;;;;;;;5.80;4.15;;;;;;;17.81;56.10;98744.69;4934350;28;20657;-79
2022/09/26 09:46:18;;;;;;;5.63;3.72;;;;;;;17.77;56.35;98739.84;4919063;29;20190;-77
2022/09/26 09:48:46;;;;;;;5.20;4.30;;;;;;;17.74;56.35;98735.72;4914108;29;20289;-76
2022/09/26 09:51:38;;;;;;;8.82;3.85;;;;;;;17.65;56.04;98723.41;4930756;29;20190;-77
2022/09/26 09:54:09;;;;;;;5.30;4.32;;;;;;;17.43;56.36;98731.00;4931038;28;20183;-77
2022/09/26 09:56:37;;;;;;;4.93;3.88;;;;;;;17.30;56.88;98724.50;4930544;28;20266;-77
2022/09/26 09:59:29;;;;;;;5.72;3.83;;;;;;;17.29;57.39;98714.91;4919441;29;20570;-77
2022/09/26 10:02:28;;;;;;;5.22;3.42;;;;;;;17.42;57.57;98717.91;4931330;28;20212;-78
2022/09/26 10:05:02;;;;;;;4.50;4.05;;;;;;;17.56;57.35;98709.28;4915342;29;20999;-77
2022/09/26 10:07:28;;;;;;;6.35;4.20;;;;;;;17.60;56.98;98710.59;4932635;28;20189;-77
2022/09/26 10:10:39;;;;;;;6.57;4.05;;;;;;;17.60;57.12;98699.16;4919817;29;20207;-78
2022/09/26 10:13:42;;;;;;;7.93;3.70;;;;;;;17.62;56.81;98700.66;4918177;29;20562;-78
2022/09/26 10:16:23;;;;;;;3.83;3.53;;;;;;;17.65;56.63;98699.50;4927120;29;20207;-77
2022/09/26 10:19:00;;;;;;;5.63;5.00;;;;;;;17.70;56.34;98694.53;4933191;28;20706;-78
2022/09/26 10:21:32;;;;;;;6.35;3.50;;;;;;;17.78;56.44;98694.53;4922437;29;20223;-77
2022/09/26 10:24:00;;;;;;;9.00;4.25;;;;;;;17.81;56.45;98696.06;4916835;29;20182;-78
2022/09/26 10:26:44;;;;;;;4.35;2.90;;;;;;;17.78;56.25;98697.19;4929211;29;20189;-78
2022/09/26 10:29:33;;;;;;;3.22;2.75;;;;;;;17.70;55.47;98694.53;4930967;28;20216;-78
2022/09/26 10:32:00;;;;;;;3.70;2.83;;;;;;;17.60;55.47;98699.16;4932693;29;20685;-78
2022/09/26 10:34:26;;;;;;;3.72;2.55;;;;;;;17.58;55.40;98695.84;4916547;29;20175;-78
2022/09/26 10:36:53;;;;;;;4.78;1.95;;;;;;;17.64;54.91;98692.53;4915343;29;20188;-78
2022/09/26 10:42:20;;;;;;;2.22;1.90;;;;;;;17.61;54.31;98680.44;4920067;29;20210;-78
2022/09/26 10:44:49;;;;;;;2.80;2.10;;;;;;;17.58;54.21;98682.56;4913246;28;20269;-78
2022/09/26 10:47:25;;;;;;;3.90;2.17;;;;;;;17.52;53.86;98686.72;4916939;28;20221;-78
2022/09/26 10:50:17;;;;;;;2.17;1.38;;;;;;;17.44;53.68;98682.25;4918938;29;20214;-77
2022/09/26 10:53:09;;;;;;;3.65;2.30;;;;;;;17.45;53.60;98680.41;4921082;29;20198;-77
2022/09/26 10:55:46;;;;;;;1.95;1.70;;;;;;;17.41;52.96;98679.06;4925741;29;20308;-78
2022/09/26 10:58:21;;;;;;;2.72;1.88;;;;;;;17.44;53.69;98681.38;4932641;28;20249;-78
2022/09/26 11:00:51;;;;;;;4.43;1.80;;;;;;;17.50;53.25;98677.25;4932316;28;20454;-77
2022/09/26 11:03:42;;;;;;;1.75;1.52;;;;;;;17.50;53.27;98679.91;4920572;29;20363;-77
2022/09/26 11:06:23;;;;;;;4.32;2.13;;;;;;;17.47;53.49;98676.59;4919897;29;20202;-77
2022/09/26 11:08:56;;;;;;;2.13;1.52;;;;;;;17.40;53.37;98678.25;4935617;28;20206;-78
2022/09/26 11:11:45;;;;;;;2.35;1.70;;;;;;;17.33;53.51;98687.00;4924501;28;20225;-77
2022/09/26 11:14:22;;;;;;;3.28;1.67;;;;;;;17.22;53.21;98688.97;4936143;28;20181;-78
2022/09/26 11:16:53;;;;;;;2.40;1.60;;;;;;;17.10;53.41;98671.72;4923880;29;20286;-77
2022/09/26 11:19:37;;;;;;;2.05;1.63;;;;;;;16.97;53.89;98680.13;4919260;29;20602;-77
2022/09/26 11:22:18;;;;;;;2.70;1.90;;;;;;;16.84;53.92;98678.94;4933427;28;20396;-77
2022/09/26 11:25:03;;;;;;;3.47;1.92;;;;;;;16.71;54.46;98666.91;4929094;28;20304;-77
2022/09/26 11:27:42;;;;;;;3.05;1.70;;;;;;;16.64;54.86;98671.19;4933171;28;20189;-78
2022/09/26 11:30:13;;;;;;;2.65;1.95;;;;;;;16.58;55.19;98667.38;4929871;28;20229;-77
2022/09/26 11:32:47;;;;;;;2.85;1.77;;;;;;;16.55;55.36;98662.38;4923259;29;20647;-78
2022/09/26 11:35:32;;;;;;;2.13;1.75;;;;;;;16.51;55.68;98661.03;4924363;29;20209;-77
2022/09/26 11:38:07;;;;;;;2.88;2.53;;;;;;;16.48;56.28;98656.06;4921748;29;20778;-77
2022/09/26 11:41:10;;;;;;;4.57;3.40;;;;;;;16.47;56.25;98650.91;4938493;28;20336;-78
2022/09/26 11:43:52;;;;;;;4.55;3.35;;;;;;;16.47;56.29;98649.09;4917932;29;20288;-78
2022/09/26 11:47:06;;;;;;;2.20;2.00;;;;;;;16.55;56.33;98645.63;4921908;29;20205;-77
2022/09/26 11:49:57;;;;;;;3.90;2.38;;;;;;;16.60;56.12;98649.47;4935309;28;20622;-78
2022/09/26 11:52:34;;;;;;;4.22;2.00;;;;;;;16.64;56.24;98643.88;4941010;28;20679;-78
2022/09/26 11:55:54;;;;;;;5.65;2.95;;;;;;;16.68;56.27;98634.59;4925088;28;20730;-78
2022/09/26 11:58:22;;;;;;;2.80;1.85;;;;;;;16.68;55.58;98629.28;4915610;29;20246;-77
2022/09/26 12:01:03;;;;;;;2.83;2.00;;;;;;;16.66;55.60;98626.81;4925772;29;20198;-77
2022/09/26 12:03:46;;;;;;;3.50;1.60;;;;;;;16.63;55.13;98621.78;4600396;28;10001294;-77
2022/09/26 12:06:26;;;;;;;5.13;2.10;;;;;;;16.67;54.75;98619.69;4925542;29;20549;-78
2022/09/26 12:09:09;;;;;;;2.50;1.80;;;;;;;16.71;54.44;98619.16;4922553;29;20596;-77
2022/09/26 12:11:51;;;;;;;2.10;1.55;;;;;;;16.76;54.36;98610.75;4924155;29;20209;-77
2022/09/26 12:14:37;;;;;;;3.22;1.70;;;;;;;16.83;54.39;98606.50;4921323;28;20400;-78
2022/09/26 12:17:42;;;;;;;2.78;2.13;;;;;;;16.91;53.94;98595.91;4920682;29;20189;-78
2022/09/26 12:20:30;;;;;;;2.58;2.38;;;;;;;16.94;53.93;98595.56;4919110;29;20202;-78
2022/09/26 12:23:18;;;;;;;2.40;2.20;;;;;;;17.02;53.72;98594.75;4917547;29;20664;-78
2022/09/26 12:25:53;;;;;;;3.92;2.10;;;;;;;17.10;53.45;98586.81;4922136;29;20734;-77
2022/09/26 12:28:23;;;;;;;3.25;2.17;;;;;;;17.18;53.23;98578.03;4923673;29;20257;-78